sensor_id;sensor_type;location;lat;lon;timestamp;pressure;altitude;pressure_sealevel;temperature;humidity
32761;BME280;19126;47.472;7.850;2023-04-09T02:40:41;97101.66;;;1.75;79.41
32761;BME280;19126;47.472;7.850;2023-04-09T02:43:08;97101.38;;;1.67;79.56
32761;BME280;19126;47.472;7.850;2023-04-09T02:45:36;97096.41;;;1.64;80.08
32761;BME280;19126;47.472;7.850;2023-04-09T02:48:04;97096.41;;;1.64;80.21
32761;BME280;19126;47.472;7.850;2023-04-09T02:50:32;97085.88;;;1.54;80.54
32761;BME280;19126;47.472;7.850;2023-04-09T02:52:59;97083.88;;;1.57;79.99
32761;BME280;19126;47.472;7.850;2023-04-09T02:55:26;97087.31;;;1.45;80.14
32761;BME280;19126;47.472;7.850;2023-04-09T02:57:55;97089.63;;;1.50;79.35
32761;BME280;19126;47.472;7.850;2023-04-09T03:00:23;97087.31;;;1.45;79.32
32761;BME280;19126;47.472;7.850;2023-04-09T03:02:50;97088.47;;;1.41;78.24
32761;BME280;19126;47.472;7.850;2023-04-09T03:05:18;97081.34;;;1.44;77.33
32761;BME280;19126;47.472;7.850;2023-04-09T03:07:45;97079.47;;;1.34;77.07
32761;BME280;19126;47.472;7.850;2023-04-09T03:10:13;97078.22;;;1.26;75.96
32761;BME280;19126;47.472;7.850;2023-04-09T03:12:40;97077.50;;;1.24;75.59
32761;BME280;19126;47.472;7.850;2023-04-09T03:15:10;97082.88;;;1.21;75.24
32761;BME280;19126;47.472;7.850;2023-04-09T03:17:38;97075.63;;;1.26;74.06
32761;BME280;19126;47.472;7.850;2023-04-09T03:20:07;97077.28;;;1.27;74.06
32761;BME280;19126;47.472;7.850;2023-04-09T03:22:35;97083.91;;;1.31;73.87
32761;BME280;19126;47.472;7.850;2023-04-09T03:25:04;97076.78;;;1.22;73.89
32761;BME280;19126;47.472;7.850;2023-04-09T03:27:32;97078.84;;;1.17;72.77
32761;BME280;19126;47.472;7.850;2023-04-09T03:29:59;97085.34;;;1.23;72.40
32761;BME280;19126;47.472;7.850;2023-04-09T03:32:29;97080.72;;;1.15;72.37
32761;BME280;19126;47.472;7.850;2023-04-09T03:34:56;97077.50;;;1.11;71.71
32761;BME280;19126;47.472;7.850;2023-04-09T03:37:24;97091.47;;;1.09;70.59
32761;BME280;19126;47.472;7.850;2023-04-09T03:39:52;97088.06;;;1.08;70.23
32761;BME280;19126;47.472;7.850;2023-04-09T03:42:19;97087.31;;;1.06;69.26
32761;BME280;19126;47.472;7.850;2023-04-09T03:44:47;97093.13;;;1.10;68.44
32761;BME280;19126;47.472;7.850;2023-04-09T03:47:14;97087.44;;;1.05;68.16
32761;BME280;19126;47.472;7.850;2023-04-09T03:49:43;97090.97;;;1.04;68.07
32761;BME280;19126;47.472;7.850;2023-04-09T03:52:11;97087.75;;;1.00;67.82
32761;BME280;19126;47.472;7.850;2023-04-09T03:54:38;97090.03;;;1.05;67.73
32761;BME280;19126;47.472;7.850;2023-04-09T03:57:06;97091.78;;;1.04;67.66
32761;BME280;19126;47.472;7.850;2023-04-09T03:59:33;97093.34;;;1.07;68.53
32761;BME280;19126;47.472;7.850;2023-04-09T04:02:00;97096.53;;;0.97;69.44
32761;BME280;19126;47.472;7.850;2023-04-09T04:04:27;97094.38;;;0.91;69.62
32761;BME280;19126;47.472;7.850;2023-04-09T04:06:56;97095.59;;;0.85;69.84
32761;BME280;19126;47.472;7.850;2023-04-09T04:09:25;97095.31;;;0.90;69.35
32761;BME280;19126;47.472;7.850;2023-04-09T04:11:52;97098.81;;;0.89;69.12
32761;BME280;19126;47.472;7.850;2023-04-09T04:14:20;97096.44;;;0.86;68.37
32761;BME280;19126;47.472;7.850;2023-04-09T04:16:47;97097.88;;;0.90;68.82
32761;BME280;19126;47.472;7.850;2023-04-09T04:19:15;97103.16;;;0.88;69.43
32761;BME280;19126;47.472;7.850;2023-04-09T04:21:42;97102.53;;;0.85;69.54
32761;BME280;19126;47.472;7.850;2023-04-09T04:24:11;97104.19;;;0.86;69.20
32761;BME280;19126;47.472;7.850;2023-04-09T04:26:39;97097.44;;;0.83;69.76
32761;BME280;19126;47.472;7.850;2023-04-09T04:29:06;97105.41;;;0.80;69.46
32761;BME280;19126;47.472;7.850;2023-04-09T04:31:34;97100.44;;;0.77;69.49
32761;BME280;19126;47.472;7.850;2023-04-09T04:34:01;97105.41;;;0.80;68.86
32761;BME280;19126;47.472;7.850;2023-04-09T04:36:29;97104.81;;;0.77;68.75
32761;BME280;19126;47.472;7.850;2023-04-09T04:38:56;97106.66;;;0.75;68.90
32761;BME280;19126;47.472;7.850;2023-04-09T04:41:25;97111.09;;;0.72;69.26
32761;BME280;19126;47.472;7.850;2023-04-09T04:43:55;97118.75;;;0.74;69.35
32761;BME280;19126;47.472;7.850;2023-04-09T04:46:24;97119.59;;;0.75;69.19
32761;BME280;19126;47.472;7.850;2023-04-09T04:48:54;97112.25;;;0.81;69.44
32761;BME280;19126;47.472;7.850;2023-04-09T04:51:23;97113.97;;;0.68;69.82
32761;BME280;19126;47.472;7.850;2023-04-09T04:53:52;97113.69;;;0.72;70.32
32761;BME280;19126;47.472;7.850;2023-04-09T04:56:19;97120.59;;;0.72;70.02
32761;BME280;19126;47.472;7.850;2023-04-09T04:58:48;97123.09;;;0.73;69.62
32761;BME280;19126;47.472;7.850;2023-04-09T05:01:16;97116.34;;;0.71;69.72
32761;BME280;19126;47.472;7.850;2023-04-09T05:03:43;97120.06;;;0.67;70.00
32761;BME280;19126;47.472;7.850;2023-04-09T05:06:10;97127.22;;;0.63;69.93
32761;BME280;19126;47.472;7.850;2023-04-09T05:08:38;97122.97;;;0.62;69.83
32761;BME280;19126;47.472;7.850;2023-04-09T05:11:05;97116.66;;;0.66;70.15
32761;BME280;19126;47.472;7.850;2023-04-09T05:13:32;97110.56;;;0.67;69.90
32761;BME280;19126;47.472;7.850;2023-04-09T05:16:01;97118.22;;;0.69;70.46
32761;BME280;19126;47.472;7.850;2023-04-09T05:18:28;97116.34;;;0.71;70.36
32761;BME280;19126;47.472;7.850;2023-04-09T05:20:56;97110.16;;;0.73;70.58
32761;BME280;19126;47.472;7.850;2023-04-09T05:23:23;97109.13;;;0.76;70.01
32761;BME280;19126;47.472;7.850;2023-04-09T05:25:51;97109.25;;;0.75;69.34
32761;BME280;19126;47.472;7.850;2023-04-09T05:28:19;97117.94;;;0.73;69.14
32761;BME280;19126;47.472;7.850;2023-04-09T05:30:46;97115.88;;;0.79;68.21
32761;BME280;19126;47.472;7.850;2023-04-09T05:33:15;97120.72;;;0.83;67.58
32761;BME280;19126;47.472;7.850;2023-04-09T05:35:43;97113.53;;;1.01;65.78
32761;BME280;19126;47.472;7.850;2023-04-09T05:38:10;97109.06;;;1.04;65.20
32761;BME280;19126;47.472;7.850;2023-04-09T05:40:39;97108.22;;;1.03;64.38
32761;BME280;19126;47.472;7.850;2023-04-09T05:43:07;97109.59;;;1.09;61.82
32761;BME280;19126;47.472;7.850;2023-04-09T05:45:34;97105.34;;;1.21;60.64
32761;BME280;19126;47.472;7.850;2023-04-09T05:48:02;97111.75;;;1.28;59.17
32761;BME280;19126;47.472;7.850;2023-04-09T05:50:31;97111.03;;;1.39;57.36
32761;BME280;19126;47.472;7.850;2023-04-09T05:52:59;97111.78;;;1.54;55.80
32761;BME280;19126;47.472;7.850;2023-04-09T05:55:27;97114.22;;;1.68;53.88
32761;BME280;19126;47.472;7.850;2023-04-09T05:57:54;97105.69;;;1.79;50.84
32761;BME280;19126;47.472;7.850;2023-04-09T06:00:22;97117.59;;;1.95;49.50
32761;BME280;19126;47.472;7.850;2023-04-09T06:02:50;97123.13;;;2.14;47.58
32761;BME280;19126;47.472;7.850;2023-04-09T06:05:17;97122.88;;;2.30;46.90
32761;BME280;19126;47.472;7.850;2023-04-09T06:07:46;97126.00;;;2.47;45.41
32761;BME280;19126;47.472;7.850;2023-04-09T06:10:14;97124.84;;;2.51;46.06
32761;BME280;19126;47.472;7.850;2023-04-09T06:12:41;97129.38;;;2.60;46.26
32761;BME280;19126;47.472;7.850;2023-04-09T07:32:28;97161.03;;;5.57;100.00
32761;BME280;19126;47.472;7.850;2023-04-09T07:34:55;97163.34;;;5.81;100.00
32761;BME280;19126;47.472;7.850;2023-04-09T07:37:24;97166.03;;;6.01;100.00
32761;BME280;19126;47.472;7.850;2023-04-09T07:39:51;97165.25;;;6.10;100.00
32761;BME280;19126;47.472;7.850;2023-04-09T07:42:19;97170.78;;;6.17;100.00
32761;BME280;19126;47.472;7.850;2023-04-09T07:44:46;97165.06;;;6.53;100.00
32761;BME280;19126;47.472;7.850;2023-04-09T07:47:14;97167.19;;;6.98;100.00
32761;BME280;19126;47.472;7.850;2023-04-09T07:49:43;97166.19;;;7.29;100.00
32761;BME280;19126;47.472;7.850;2023-04-09T07:52:10;97165.53;;;7.17;100.00
32761;BME280;19126;47.472;7.850;2023-04-09T07:54:37;97171.22;;;7.60;100.00
32761;BME280;19126;47.472;7.850;2023-04-09T07:57:05;97166.56;;;8.01;100.00
32761;BME280;19126;47.472;7.850;2023-04-09T07:59:33;97169.19;;;8.29;100.00
32761;BME280;19126;47.472;7.850;2023-04-09T08:02:01;97167.97;;;8.52;100.00
32761;BME280;19126;47.472;7.850;2023-04-09T08:04:28;97169.09;;;8.67;99.16
32761;BME280;19126;47.472;7.850;2023-04-09T08:06:57;97168.22;;;8.48;96.88
32761;BME280;19126;47.472;7.850;2023-04-09T08:09:24;97179.56;;;8.21;96.06
32761;BME280;19126;47.472;7.850;2023-04-09T08:11:52;97169.59;;;8.25;96.79
32761;BME280;19126;47.472;7.850;2023-04-09T08:14:19;97173.84;;;8.35;99.02
32761;BME280;19126;47.472;7.850;2023-04-09T08:16:48;97172.34;;;8.97;100.00
32761;BME280;19126;47.472;7.850;2023-04-09T08:19:16;97178.75;;;9.21;97.68
32761;BME280;19126;47.472;7.850;2023-04-09T08:21:45;97177.06;;;9.56;94.46
32761;BME280;19126;47.472;7.850;2023-04-09T08:24:15;97181.47;;;9.56;91.61
32761;BME280;19126;47.472;7.850;2023-04-09T08:26:43;97170.78;;;9.75;90.22
32761;BME280;19126;47.472;7.850;2023-04-09T08:29:11;97173.91;;;10.14;92.77
32761;BME280;19126;47.472;7.850;2023-04-09T08:31:39;97179.84;;;10.50;90.58
32761;BME280;19126;47.472;7.850;2023-04-09T08:34:07;97184.69;;;10.37;86.07
32761;BME280;19126;47.472;7.850;2023-04-09T08:36:34;97181.09;;;10.38;84.72
32761;BME280;19126;47.472;7.850;2023-04-09T08:39:02;97175.59;;;10.58;84.02
32761;BME280;19126;47.472;7.850;2023-04-09T08:41:31;97173.66;;;10.84;82.10
32761;BME280;19126;47.472;7.850;2023-04-09T08:43:58;97176.66;;;11.14;85.71
32761;BME280;19126;47.472;7.850;2023-04-09T08:46:27;97177.16;;;11.51;83.65
32761;BME280;19126;47.472;7.850;2023-04-09T08:48:54;97178.28;;;11.32;77.34
32761;BME280;19126;47.472;7.850;2023-04-09T08:51:23;97181.44;;;11.36;76.14
32761;BME280;19126;47.472;7.850;2023-04-09T08:53:56;97177.59;;;11.71;79.21
32761;BME280;19126;47.472;7.850;2023-04-09T08:56:24;97173.44;;;11.94;77.43
32761;BME280;19126;47.472;7.850;2023-04-09T08:58:54;97180.69;;;11.92;77.74
32761;BME280;19126;47.472;7.850;2023-04-09T09:01:24;97178.84;;;11.92;75.73
32761;BME280;19126;47.472;7.850;2023-04-09T09:03:54;97180.56;;;12.33;76.86
32761;BME280;19126;47.472;7.850;2023-04-09T09:06:23;97190.34;;;12.56;73.23
32761;BME280;19126;47.472;7.850;2023-04-09T09:09:04;97176.31;;;12.87;72.25
32761;BME280;19126;47.472;7.850;2023-04-09T09:11:32;97180.06;;;13.16;72.31
32761;BME280;19126;47.472;7.850;2023-04-09T09:14:04;97177.97;;;13.34;70.81
32761;BME280;19126;47.472;7.850;2023-04-09T09:16:33;97181.03;;;13.46;70.14
32761;BME280;19126;47.472;7.850;2023-04-09T09:19:01;97180.59;;;13.58;66.27
32761;BME280;19126;47.472;7.850;2023-04-09T09:21:32;97181.00;;;13.23;61.59
32761;BME280;19126;47.472;7.850;2023-04-09T09:24:01;97179.72;;;13.19;64.92
32761;BME280;19126;47.472;7.850;2023-04-09T09:26:42;97183.91;;;13.37;63.08
32761;BME280;19126;47.472;7.850;2023-04-09T09:29:11;97177.56;;;13.23;63.28
32761;BME280;19126;47.472;7.850;2023-04-09T09:31:46;97162.59;;;13.15;65.16
32761;BME280;19126;47.472;7.850;2023-04-09T09:34:14;97170.94;;;13.27;64.44
32761;BME280;19126;47.472;7.850;2023-04-09T09:36:43;97174.94;;;13.23;64.25
32761;BME280;19126;47.472;7.850;2023-04-09T09:39:12;97164.25;;;13.16;62.44
32761;BME280;19126;47.472;7.850;2023-04-09T09:41:41;97168.22;;;13.58;64.54
32761;BME280;19126;47.472;7.850;2023-04-09T09:44:11;97166.91;;;13.92;61.57
32761;BME280;19126;47.472;7.850;2023-04-09T09:46:39;97164.50;;;13.83;61.05
32761;BME280;19126;47.472;7.850;2023-04-09T09:49:08;97168.97;;;13.97;62.16
32761;BME280;19126;47.472;7.850;2023-04-09T09:51:38;97157.31;;;14.21;61.03
32761;BME280;19126;47.472;7.850;2023-04-09T09:54:07;97163.88;;;14.26;57.36
32761;BME280;19126;47.472;7.850;2023-04-09T09:56:38;97160.41;;;14.10;58.40
32761;BME280;19126;47.472;7.850;2023-04-09T09:59:17;97158.47;;;14.34;57.68
32761;BME280;19126;47.472;7.850;2023-04-09T10:01:47;97154.34;;;14.46;58.05
32761;BME280;19126;47.472;7.850;2023-04-09T10:04:19;97147.31;;;14.02;56.23
32761;BME280;19126;47.472;7.850;2023-04-09T10:06:47;97146.81;;;14.28;59.93
32761;BME280;19126;47.472;7.850;2023-04-09T10:09:15;97144.91;;;14.22;57.13
32761;BME280;19126;47.472;7.850;2023-04-09T10:11:44;97140.19;;;13.72;56.86
32761;BME280;19126;47.472;7.850;2023-04-09T10:14:15;97139.22;;;13.88;58.12
32761;BME280;19126;47.472;7.850;2023-04-09T10:16:43;97136.19;;;14.21;57.81
32761;BME280;19126;47.472;7.850;2023-04-09T10:19:12;97141.47;;;14.06;52.41
32761;BME280;19126;47.472;7.850;2023-04-09T10:21:46;97125.50;;;14.30;53.94
32761;BME280;19126;47.472;7.850;2023-04-09T10:24:20;97142.41;;;14.50;53.93
32761;BME280;19126;47.472;7.850;2023-04-09T10:26:47;97134.47;;;14.50;55.95
32761;BME280;19126;47.472;7.850;2023-04-09T10:29:16;97153.88;;;14.06;53.35
32761;BME280;19126;47.472;7.850;2023-04-09T10:32:03;97145.31;;;13.74;57.47
32761;BME280;19126;47.472;7.850;2023-04-09T10:34:36;97126.72;;;13.52;57.57
32761;BME280;19126;47.472;7.850;2023-04-09T10:37:07;97128.28;;;13.91;58.34
32761;BME280;19126;47.472;7.850;2023-04-09T10:39:40;97130.53;;;14.10;55.91
32761;BME280;19126;47.472;7.850;2023-04-09T10:42:14;97122.91;;;14.36;58.26
32761;BME280;19126;47.472;7.850;2023-04-09T10:44:43;97124.63;;;14.59;56.96
32761;BME280;19126;47.472;7.850;2023-04-09T10:47:13;97127.56;;;14.86;53.13
32761;BME280;19126;47.472;7.850;2023-04-09T10:49:56;97125.16;;;15.42;55.80
32761;BME280;19126;47.472;7.850;2023-04-09T10:52:30;97128.53;;;15.29;51.66
32761;BME280;19126;47.472;7.850;2023-04-09T10:54:59;97124.91;;;15.36;51.71
32761;BME280;19126;47.472;7.850;2023-04-09T10:57:27;97129.78;;;15.33;52.30
32761;BME280;19126;47.472;7.850;2023-04-09T10:59:55;97131.59;;;15.32;50.78
32761;BME280;19126;47.472;7.850;2023-04-09T11:03:05;97124.19;;;15.49;51.41
32761;BME280;19126;47.472;7.850;2023-04-09T11:05:37;97134.09;;;15.41;51.30
32761;BME280;19126;47.472;7.850;2023-04-09T11:08:08;97127.94;;;14.31;49.67
32761;BME280;19126;47.472;7.850;2023-04-09T11:10:37;97125.19;;;14.40;54.33
32761;BME280;19126;47.472;7.850;2023-04-09T11:13:09;97139.34;;;14.17;53.53
32761;BME280;19126;47.472;7.850;2023-04-09T11:15:39;97125.06;;;13.96;52.65
32761;BME280;19126;47.472;7.850;2023-04-09T11:18:06;97125.53;;;14.00;54.09
32761;BME280;19126;47.472;7.850;2023-04-09T11:20:38;97109.78;;;13.91;53.27
32761;BME280;19126;47.472;7.850;2023-04-09T11:23:06;97107.41;;;13.97;54.55
32761;BME280;19126;47.472;7.850;2023-04-09T11:25:33;97114.50;;;14.11;55.67
32761;BME280;19126;47.472;7.850;2023-04-09T11:28:03;97115.97;;;13.99;52.46
32761;BME280;19126;47.472;7.850;2023-04-09T11:30:31;97112.69;;;13.82;52.29
32761;BME280;19126;47.472;7.850;2023-04-09T11:33:00;97120.22;;;14.30;52.88
32761;BME280;19126;47.472;7.850;2023-04-09T11:35:28;97120.31;;;14.21;51.95
32761;BME280;19126;47.472;7.850;2023-04-09T11:37:55;97115.03;;;14.21;50.16
32761;BME280;19126;47.472;7.850;2023-04-09T11:40:24;97119.59;;;14.28;51.65
32761;BME280;19126;47.472;7.850;2023-04-09T11:42:55;97107.06;;;14.36;51.82
32761;BME280;19126;47.472;7.850;2023-04-09T11:45:24;97110.56;;;14.59;53.07
32761;BME280;19126;47.472;7.850;2023-04-09T11:47:54;97120.41;;;14.50;52.10
32761;BME280;19126;47.472;7.850;2023-04-09T11:50:25;97108.69;;;14.01;49.60
32761;BME280;19126;47.472;7.850;2023-04-09T11:52:52;97108.97;;;14.06;51.30
32761;BME280;19126;47.472;7.850;2023-04-09T11:55:27;97113.44;;;13.90;50.55
32761;BME280;19126;47.472;7.850;2023-04-09T11:57:58;97106.06;;;13.71;49.43
32761;BME280;19126;47.472;7.850;2023-04-09T12:00:27;97100.97;;;13.84;50.72
32761;BME280;19126;47.472;7.850;2023-04-09T12:03:00;97107.59;;;14.10;50.52
32761;BME280;19126;47.472;7.850;2023-04-09T12:05:31;97105.94;;;14.09;50.14
32761;BME280;19126;47.472;7.850;2023-04-09T12:08:00;97102.03;;;14.42;50.73
32761;BME280;19126;47.472;7.850;2023-04-09T12:10:29;97106.47;;;14.56;50.63
32761;BME280;19126;47.472;7.850;2023-04-09T12:13:01;97102.50;;;14.82;49.06
32761;BME280;19126;47.472;7.850;2023-04-09T12:15:32;97103.03;;;14.99;51.48
32761;BME280;19126;47.472;7.850;2023-04-09T12:18:00;97092.19;;;15.16;51.13
32761;BME280;19126;47.472;7.850;2023-04-09T12:20:34;97093.09;;;14.79;49.92
32761;BME280;19126;47.472;7.850;2023-04-09T12:23:03;97108.72;;;14.74;48.45
32761;BME280;19126;47.472;7.850;2023-04-09T12:25:33;97093.63;;;14.53;48.22
32761;BME280;19126;47.472;7.850;2023-04-09T12:28:02;97099.97;;;14.74;49.09
32761;BME280;19126;47.472;7.850;2023-04-09T12:30:30;97086.31;;;14.55;47.87
32761;BME280;19126;47.472;7.850;2023-04-09T12:32:58;97089.81;;;14.77;49.83
32761;BME280;19126;47.472;7.850;2023-04-09T12:35:25;97085.38;;;14.63;50.13
32761;BME280;19126;47.472;7.850;2023-04-09T12:37:55;97080.72;;;14.65;48.92
32761;BME280;19126;47.472;7.850;2023-04-09T12:40:24;97082.13;;;14.83;50.23
32761;BME280;19126;47.472;7.850;2023-04-09T12:42:51;97083.13;;;15.03;51.71
32761;BME280;19126;47.472;7.850;2023-04-09T12:45:19;97088.91;;;15.14;50.05
32761;BME280;19126;47.472;7.850;2023-04-09T12:47:47;97082.88;;;14.98;47.99
32761;BME280;19126;47.472;7.850;2023-04-09T12:50:15;97088.25;;;15.05;50.63
32761;BME280;19126;47.472;7.850;2023-04-09T12:52:43;97081.25;;;14.97;49.71
32761;BME280;19126;47.472;7.850;2023-04-09T12:55:13;97077.56;;;14.91;50.43
32761;BME280;19126;47.472;7.850;2023-04-09T12:57:43;97084.00;;;15.11;49.69
32761;BME280;19126;47.472;7.850;2023-04-09T13:00:13;97081.63;;;14.94;47.25
32761;BME280;19126;47.472;7.850;2023-04-09T13:02:41;97081.69;;;15.01;47.79
32761;BME280;19126;47.472;7.850;2023-04-09T13:05:08;97073.81;;;15.07;50.74
32761;BME280;19126;47.472;7.850;2023-04-09T13:07:36;97067.75;;;15.14;48.58
32761;BME280;19126;47.472;7.850;2023-04-09T13:10:05;97081.66;;;15.22;49.30
32761;BME280;19126;47.472;7.850;2023-04-09T13:12:34;97074.72;;;15.21;49.44
32761;BME280;19126;47.472;7.850;2023-04-09T13:15:02;97066.03;;;15.28;49.95
32761;BME280;19126;47.472;7.850;2023-04-09T13:17:29;97061.63;;;15.42;52.74
32761;BME280;19126;47.472;7.850;2023-04-09T13:19:56;97056.75;;;15.45;48.26
32761;BME280;19126;47.472;7.850;2023-04-09T13:22:24;97053.09;;;15.46;49.28
32761;BME280;19126;47.472;7.850;2023-04-09T13:24:51;97054.13;;;15.45;50.80
32761;BME280;19126;47.472;7.850;2023-04-09T13:27:19;97055.53;;;15.48;53.02
32761;BME280;19126;47.472;7.850;2023-04-09T13:29:47;97048.34;;;15.35;51.53
32761;BME280;19126;47.472;7.850;2023-04-09T13:32:14;97057.09;;;15.35;50.72
32761;BME280;19126;47.472;7.850;2023-04-09T13:34:43;97055.22;;;15.58;51.56
32761;BME280;19126;47.472;7.850;2023-04-09T13:37:11;97058.72;;;15.30;46.84
32761;BME280;19126;47.472;7.850;2023-04-09T13:39:39;97054.44;;;15.35;49.86
32761;BME280;19126;47.472;7.850;2023-04-09T13:42:07;97046.81;;;15.19;48.98
32761;BME280;19126;47.472;7.850;2023-04-09T13:44:35;97047.03;;;15.17;48.92
32761;BME280;19126;47.472;7.850;2023-04-09T13:47:03;97038.69;;;15.20;50.89
32761;BME280;19126;47.472;7.850;2023-04-09T13:49:31;97038.78;;;15.34;50.79
32761;BME280;19126;47.472;7.850;2023-04-09T13:51:58;97033.03;;;15.30;49.75
32761;BME280;19126;47.472;7.850;2023-04-09T13:54:26;97043.88;;;15.35;48.67
32761;BME280;19126;47.472;7.850;2023-04-09T13:56:53;97044.91;;;15.06;48.92
32761;BME280;19126;47.472;7.850;2023-04-09T13:59:21;97035.75;;;15.08;49.28
32761;BME280;19126;47.472;7.850;2023-04-09T14:01:48;97026.00;;;15.09;52.12
32761;BME280;19126;47.472;7.850;2023-04-09T14:04:17;97041.66;;;15.11;51.75
32761;BME280;19126;47.472;7.850;2023-04-09T14:06:45;97029.13;;;15.19;52.57
32761;BME280;19126;47.472;7.850;2023-04-09T14:09:13;97030.41;;;15.02;50.09
32761;BME280;19126;47.472;7.850;2023-04-09T14:11:41;97025.50;;;14.99;49.59
32761;BME280;19126;47.472;7.850;2023-04-09T14:14:09;97020.69;;;15.09;49.91
32761;BME280;19126;47.472;7.850;2023-04-09T14:16:36;97008.88;;;15.05;50.32
32761;BME280;19126;47.472;7.850;2023-04-09T14:19:03;97013.63;;;14.88;50.28
32761;BME280;19126;47.472;7.850;2023-04-09T14:21:33;97017.56;;;14.99;50.27
32761;BME280;19126;47.472;7.850;2023-04-09T14:24:01;97009.56;;;14.92;50.78
32761;BME280;19126;47.472;7.850;2023-04-09T14:26:28;97015.09;;;14.97;49.37
32761;BME280;19126;47.472;7.850;2023-04-09T14:28:56;97013.69;;;14.94;50.47
32761;BME280;19126;47.472;7.850;2023-04-09T14:31:23;97012.84;;;14.94;49.97
32761;BME280;19126;47.472;7.850;2023-04-09T14:33:54;97011.81;;;14.88;49.92
32761;BME280;19126;47.472;7.850;2023-04-09T14:36:21;97008.69;;;14.78;49.78
32761;BME280;19126;47.472;7.850;2023-04-09T14:38:50;97011.59;;;14.68;50.25
32761;BME280;19126;47.472;7.850;2023-04-09T14:41:17;97007.47;;;14.80;50.62
32761;BME280;19126;47.472;7.850;2023-04-09T14:43:45;97000.50;;;14.73;49.74
32761;BME280;19126;47.472;7.850;2023-04-09T14:46:13;97001.13;;;14.75;49.56
32761;BME280;19126;47.472;7.850;2023-04-09T14:48:40;97001.31;;;14.73;49.33
32761;BME280;19126;47.472;7.850;2023-04-09T14:51:09;97003.66;;;14.90;48.66
32761;BME280;19126;47.472;7.850;2023-04-09T14:53:43;97005.38;;;14.98;50.29
32761;BME280;19126;47.472;7.850;2023-04-09T14:56:14;97006.22;;;14.76;46.33
32761;BME280;19126;47.472;7.850;2023-04-09T14:58:42;97003.53;;;14.98;48.22
32761;BME280;19126;47.472;7.850;2023-04-09T15:01:09;97005.31;;;14.91;49.24
32761;BME280;19126;47.472;7.850;2023-04-09T15:03:37;97010.66;;;14.98;51.31
32761;BME280;19126;47.472;7.850;2023-04-09T15:06:07;97008.03;;;15.04;50.29
32761;BME280;19126;47.472;7.850;2023-04-09T15:08:34;97012.44;;;14.90;50.71
32761;BME280;19126;47.472;7.850;2023-04-09T15:11:01;97008.09;;;14.83;49.18
32761;BME280;19126;47.472;7.850;2023-04-09T15:13:30;97002.31;;;14.72;50.54
32761;BME280;19126;47.472;7.850;2023-04-09T15:15:57;97002.78;;;14.61;49.17
32761;BME280;19126;47.472;7.850;2023-04-09T15:18:25;97008.78;;;14.48;50.68
32761;BME280;19126;47.472;7.850;2023-04-09T15:20:52;97002.72;;;14.54;49.56
32761;BME280;19126;47.472;7.850;2023-04-09T15:23:20;96998.19;;;14.48;50.15
32761;BME280;19126;47.472;7.850;2023-04-09T15:25:48;96999.84;;;14.49;52.06
32761;BME280;19126;47.472;7.850;2023-04-09T15:28:16;96995.41;;;14.56;51.70
32761;BME280;19126;47.472;7.850;2023-04-09T15:30:45;97003.06;;;14.44;50.43
32761;BME280;19126;47.472;7.850;2023-04-09T15:33:12;96987.56;;;13.98;50.47
32761;BME280;19126;47.472;7.850;2023-04-09T15:35:40;96987.09;;;13.57;50.66
32761;BME280;19126;47.472;7.850;2023-04-09T15:38:07;96997.28;;;13.60;52.56
32761;BME280;19126;47.472;7.850;2023-04-09T15:40:35;96998.19;;;13.53;52.46
32761;BME280;19126;47.472;7.850;2023-04-09T15:43:02;96994.56;;;13.54;53.07
32761;BME280;19126;47.472;7.850;2023-04-09T15:45:29;96987.00;;;13.51;55.27
32761;BME280;19126;47.472;7.850;2023-04-09T15:47:59;96991.38;;;13.43;54.31
32761;BME280;19126;47.472;7.850;2023-04-09T15:50:26;96989.16;;;13.32;55.50
32761;BME280;19126;47.472;7.850;2023-04-09T15:52:53;96992.81;;;13.31;55.15
32761;BME280;19126;47.472;7.850;2023-04-09T15:55:21;96987.34;;;13.17;54.34
32761;BME280;19126;47.472;7.850;2023-04-09T15:57:51;96990.78;;;13.03;54.12
32761;BME280;19126;47.472;7.850;2023-04-09T16:00:20;96996.88;;;12.88;53.86
32761;BME280;19126;47.472;7.850;2023-04-09T16:02:50;97001.75;;;12.77;52.71
32761;BME280;19126;47.472;7.850;2023-04-09T16:05:19;97002.81;;;12.67;53.34
32761;BME280;19126;47.472;7.850;2023-04-09T16:07:49;96995.63;;;12.61;54.60
32761;BME280;19126;47.472;7.850;2023-04-09T16:10:17;96994.16;;;12.58;53.41
32761;BME280;19126;47.472;7.850;2023-04-09T16:12:45;96994.03;;;12.52;55.07
32761;BME280;19126;47.472;7.850;2023-04-09T16:15:13;96992.59;;;12.49;54.63
32761;BME280;19126;47.472;7.850;2023-04-09T16:17:41;96982.69;;;12.51;56.39
32761;BME280;19126;47.472;7.850;2023-04-09T16:20:09;96980.59;;;12.46;54.71
32761;BME280;19126;47.472;7.850;2023-04-09T16:22:37;96981.06;;;12.50;55.41
32761;BME280;19126;47.472;7.850;2023-04-09T16:25:06;96982.13;;;12.41;53.67
32761;BME280;19126;47.472;7.850;2023-04-09T16:27:33;96989.75;;;12.36;53.53
32761;BME280;19126;47.472;7.850;2023-04-09T16:30:01;96983.34;;;12.30;52.19
32761;BME280;19126;47.472;7.850;2023-04-09T16:32:28;96986.63;;;12.32;53.01
32761;BME280;19126;47.472;7.850;2023-04-09T16:34:56;96992.94;;;12.23;53.00
32761;BME280;19126;47.472;7.850;2023-04-09T16:37:25;96996.19;;;12.10;53.30
32761;BME280;19126;47.472;7.850;2023-04-09T16:39:55;96996.69;;;12.05;52.31
32761;BME280;19126;47.472;7.850;2023-04-09T16:42:23;96991.13;;;12.00;52.00
32761;BME280;19126;47.472;7.850;2023-04-09T16:44:51;96989.63;;;12.06;52.33
32761;BME280;19126;47.472;7.850;2023-04-09T16:47:19;96988.16;;;11.95;53.73
32761;BME280;19126;47.472;7.850;2023-04-09T16:49:46;96993.94;;;11.90;55.75
32761;BME280;19126;47.472;7.850;2023-04-09T16:52:13;96997.78;;;11.79;55.84
32761;BME280;19126;47.472;7.850;2023-04-09T16:54:41;96994.19;;;11.72;56.24
32761;BME280;19126;47.472;7.850;2023-04-09T16:57:10;97007.41;;;11.64;57.58
32761;BME280;19126;47.472;7.850;2023-04-09T16:59:37;97002.97;;;11.56;55.27
32761;BME280;19126;47.472;7.850;2023-04-09T17:02:06;97005.63;;;11.48;55.32
32761;BME280;19126;47.472;7.850;2023-04-09T17:04:33;97002.69;;;11.42;54.57
32761;BME280;19126;47.472;7.850;2023-04-09T17:07:04;97006.19;;;11.35;55.01